Capitol Logistics 239


KMIA
Miami International Airport
Miami, Florida, US
TJSJ
Luis Munoz Marin International Airport
San Juan, , PR

Activity Log

Date Flight Route Aircraft Duration
09/28/2019 CPX239 SKIPS2 SKIPS Y290 BEANO B763 2h 54m
06/18/2019 CPX239 SKIPS2 SKIPS Y290 BEANO B763 2h 18m
05/26/2019 CPX239 SKIPS2 SKIPS Y290 BEANO B763 2h 20m
04/06/2019 CPX239 SKIPS2 SKIPS Y290 BEANO B763 2h 18m
02/16/2019 CPX239 SKIPS2 SKIPS Y290 BEANO BEANO3 B763 2h 14m

Route Details

Aircraft Information
Primary: Boeing 767-300BDSF
Backup: Not Available
Route Data
Distance: 909nm
Sched. Duration: 2h 00m
Avg. Duration: 2h 25m (+25m)
Times Flown: 5
Recm'd Route: SKIPS2 SKIPS Y290 BEANO
Planned Altitude: 35,000ft
Origin Wx: KMIA 291853Z 15009KT 10SM SCT027 BKN035 31/24 A2990 RMK AO2 SLP125 T03060239
Dest. Wx: TJSJ 291856Z 09013KT 10SM SCT025 SCT070 BKN100 28/25 A2987 RMK AO2 RAB18E35 SLP113 VCSH SE W P0001 T02780250
Notes:

Financial History
Total Freight: 445,816lbs
Average Load: 89,163lbs/flt
Fuel Used: 126,361lbs
Avg. Fuel Used: 25,272lbs/flt
Fuel Expense: $155,424
Avg. Fuel Expense: $31,085
Avg. Fuel Cost: $1.23/lbs
Total Gross Income: $584,019
Pilot Pay: $825
Total Expenses: $63,334
Total Revenue: $362,398
Average Revenue: $116,803.79